createdAt,value
2022-12-11T00:02:06.769Z,57.25
2022-12-11T00:04:36.193Z,62.60
2022-12-11T00:07:05.080Z,59.33
2022-12-11T00:09:35.622Z,53.72
2022-12-11T00:12:05.677Z,62.08
2022-12-11T00:14:34.774Z,56.92
2022-12-11T00:17:03.632Z,56.17
2022-12-11T00:19:32.803Z,52.20
2022-12-11T00:22:01.542Z,52.78
2022-12-11T00:24:30.695Z,58.00
2022-12-11T00:27:01.024Z,54.92
2022-12-11T00:29:30.099Z,50.35
2022-12-11T00:31:58.680Z,50.83
2022-12-11T00:34:28.109Z,55.13
2022-12-11T00:36:57.071Z,62.00
2022-12-11T00:39:25.901Z,50.40
2022-12-11T00:41:55.223Z,55.40
2022-12-11T00:44:25.862Z,48.47
2022-12-11T00:46:54.843Z,55.60
2022-12-11T00:49:24.072Z,47.97
2022-12-11T00:51:52.937Z,48.83
2022-12-11T00:54:22.238Z,50.88
2022-12-11T00:56:51.256Z,50.43
2022-12-11T00:59:19.892Z,47.92
2022-12-11T01:01:50.187Z,50.35
2022-12-11T01:04:19.249Z,50.13
2022-12-11T01:06:48.297Z,50.53
2022-12-11T01:09:34.975Z,46.10
2022-12-11T01:12:05.829Z,45.22
2022-12-11T01:14:34.486Z,47.88
2022-12-11T01:17:05.900Z,50.00
2022-12-11T01:19:35.000Z,45.92
2022-12-11T01:22:03.599Z,49.13
2022-12-11T01:24:32.872Z,50.60
2022-12-11T01:27:01.563Z,48.88
2022-12-11T01:29:31.036Z,42.28
2022-12-11T01:31:59.836Z,43.95
2022-12-11T01:34:32.222Z,41.87
2022-12-11T01:37:01.743Z,43.30
2022-12-11T01:39:30.951Z,44.95
2022-12-11T01:42:00.819Z,41.90
2022-12-11T01:45:06.961Z,49.25
2022-12-11T01:47:36.144Z,42.87
2022-12-11T01:50:06.965Z,46.13
2022-12-11T01:52:36.335Z,46.08
2022-12-11T01:55:05.783Z,46.33
2022-12-11T01:57:34.980Z,44.90
2022-12-11T02:00:04.247Z,42.10
2022-12-11T02:02:49.143Z,46.10
2022-12-11T02:05:25.595Z,46.95
2022-12-11T02:07:58.348Z,50.42
2022-12-11T02:10:50.030Z,41.15
2022-12-11T02:13:25.115Z,42.90
2022-12-11T02:16:02.799Z,41.33
2022-12-11T02:18:36.772Z,40.35
2022-12-11T02:21:14.556Z,36.67
2022-12-11T02:24:15.961Z,43.67
2022-12-11T02:27:33.402Z,39.37
2022-12-11T02:30:07.720Z,36.78
2022-12-11T02:32:41.248Z,41.22
2022-12-11T02:35:15.375Z,39.42
2022-12-11T02:37:48.812Z,37.47
2022-12-11T02:40:23.473Z,39.57
2022-12-11T02:42:55.613Z,36.38
2022-12-11T02:45:28.830Z,39.85
2022-12-11T02:48:00.342Z,37.28
2022-12-11T02:50:30.394Z,38.50
2022-12-11T02:53:01.468Z,39.50
2022-12-11T02:55:32.632Z,36.80
2022-12-11T02:58:05.828Z,36.38
2022-12-11T03:00:36.522Z,38.88
2022-12-11T03:03:05.785Z,41.83
2022-12-11T03:05:35.202Z,38.67
2022-12-11T03:08:04.374Z,35.60
2022-12-11T03:10:33.540Z,41.95
2022-12-11T03:13:04.149Z,38.70
2022-12-11T03:15:42.843Z,35.85
2022-12-11T03:18:19.431Z,37.07
2022-12-11T03:20:55.929Z,33.85
2022-12-11T03:23:32.469Z,34.33
2022-12-11T03:26:05.182Z,35.65
2022-12-11T03:28:43.948Z,35.78
2022-12-11T03:31:17.168Z,34.13
2022-12-11T03:33:50.496Z,37.80
2022-12-11T03:36:24.142Z,29.13
2022-12-11T03:38:57.484Z,30.98
2022-12-11T03:41:28.885Z,31.40
2022-12-11T03:43:59.906Z,29.80
2022-12-11T03:46:35.093Z,30.77
2022-12-11T03:49:08.220Z,33.28
2022-12-11T03:51:37.757Z,29.08
2022-12-11T03:54:07.162Z,30.02
2022-12-11T03:56:38.724Z,29.20
2022-12-11T03:59:07.889Z,32.03
2022-12-11T04:01:37.966Z,29.00
2022-12-11T04:04:07.258Z,27.08
2022-12-11T04:06:35.987Z,26.25
2022-12-11T04:09:05.307Z,24.67
2022-12-11T04:11:37.198Z,27.55
2022-12-11T04:14:26.102Z,25.85
2022-12-11T04:16:57.016Z,28.10
2022-12-11T04:19:44.531Z,29.08
2022-12-11T04:22:28.264Z,25.17
2022-12-11T04:24:57.469Z,28.27
2022-12-11T04:27:44.110Z,26.45
2022-12-11T04:30:17.147Z,28.35
2022-12-11T04:32:47.822Z,28.08
2022-12-11T04:35:16.822Z,32.03
2022-12-11T04:37:45.702Z,30.02
2022-12-11T04:40:17.357Z,27.60
2022-12-11T04:42:47.501Z,32.10
2022-12-11T04:45:16.474Z,34.45
2022-12-11T04:47:45.547Z,32.03
2022-12-11T04:50:16.911Z,31.52
2022-12-11T04:52:45.938Z,35.13
2022-12-11T04:55:15.180Z,35.63
2022-12-11T04:57:44.259Z,32.83
2022-12-11T05:00:14.214Z,31.50
2022-12-11T05:02:43.901Z,31.85
2022-12-11T05:05:13.335Z,36.45
2022-12-11T05:07:44.090Z,32.75
2022-12-11T05:10:13.492Z,33.97
2022-12-11T05:12:42.115Z,36.40
2022-12-11T05:15:11.876Z,35.50
2022-12-11T05:17:40.775Z,38.20
2022-12-11T05:20:10.962Z,34.55
2022-12-11T05:22:40.442Z,34.80
2022-12-11T05:25:11.456Z,34.33
2022-12-11T05:27:40.487Z,34.05
2022-12-11T05:30:10.571Z,34.40
2022-12-11T05:32:39.993Z,35.03
2022-12-11T05:35:09.762Z,35.03
2022-12-11T05:37:38.972Z,36.20
2022-12-11T05:40:09.002Z,36.63
2022-12-11T05:42:39.443Z,33.40
2022-12-11T05:45:10.041Z,30.33
2022-12-11T05:47:39.654Z,36.22
2022-12-11T05:50:09.353Z,33.03
2022-12-11T05:52:38.346Z,31.42
2022-12-11T05:55:09.961Z,30.17
2022-12-11T05:57:40.930Z,31.52
2022-12-11T06:00:11.789Z,29.98
2022-12-11T06:02:40.520Z,30.37
2022-12-11T06:05:10.242Z,32.65
2022-12-11T06:07:39.182Z,33.75
2022-12-11T06:10:09.022Z,31.33
2022-12-11T06:12:38.114Z,30.55
2022-12-11T06:15:09.757Z,31.43
2022-12-11T06:17:39.066Z,34.53
2022-12-11T06:20:08.392Z,33.83
2022-12-11T06:22:37.661Z,31.77
2022-12-11T06:25:07.613Z,34.20
2022-12-11T06:27:36.656Z,34.83
2022-12-11T06:30:05.884Z,35.55
2022-12-11T06:32:36.709Z,36.42
2022-12-11T06:35:06.351Z,36.90
2022-12-11T06:37:36.667Z,39.47
2022-12-11T06:40:06.825Z,35.57
2022-12-11T06:42:35.990Z,37.70
2022-12-11T06:45:05.804Z,40.92
2022-12-11T06:47:36.783Z,39.38
2022-12-11T06:50:06.440Z,37.55
2022-12-11T06:52:36.415Z,42.63
2022-12-11T06:55:05.740Z,37.72
2022-12-11T06:57:34.996Z,43.63
2022-12-11T07:00:03.805Z,43.30
2022-12-11T07:02:32.836Z,41.03
2022-12-11T07:05:02.940Z,41.80
2022-12-11T07:07:31.856Z,46.67
2022-12-11T07:10:07.638Z,42.75
2022-12-11T07:12:38.209Z,41.75
2022-12-11T07:15:07.989Z,47.65
2022-12-11T07:17:37.203Z,39.23
2022-12-11T07:20:09.524Z,39.70
2022-12-11T07:22:44.666Z,39.17
2022-12-11T07:25:16.054Z,43.15
2022-12-11T07:27:44.686Z,39.53
2022-12-11T07:30:15.720Z,35.87
2022-12-11T07:32:45.178Z,41.50
2022-12-11T07:35:15.653Z,39.58
2022-12-11T07:37:46.163Z,37.70
2022-12-11T07:40:15.395Z,39.35
2022-12-11T07:42:46.417Z,39.30
2022-12-11T07:45:16.471Z,35.42
2022-12-11T07:47:45.185Z,38.53
2022-12-11T07:50:15.543Z,40.03
2022-12-11T07:52:44.792Z,39.47
2022-12-11T07:55:13.795Z,37.10
2022-12-11T07:57:43.056Z,37.92
2022-12-11T08:00:13.210Z,38.03
2022-12-11T08:02:41.944Z,39.95
2022-12-11T08:05:13.542Z,43.42
2022-12-11T08:07:44.387Z,37.57
2022-12-11T08:10:13.405Z,41.83
2022-12-11T08:12:42.240Z,36.05
2022-12-11T08:15:12.257Z,37.88
2022-12-11T08:17:41.418Z,36.30
2022-12-11T08:20:11.371Z,34.23
2022-12-11T08:22:40.724Z,32.80
2022-12-11T08:25:11.504Z,38.13
2022-12-11T08:27:40.606Z,36.17
2022-12-11T08:30:10.329Z,37.75
2022-12-11T08:32:39.417Z,33.63
2022-12-11T08:35:10.082Z,33.47
2022-12-11T08:37:39.390Z,32.25
2022-12-11T08:40:12.482Z,31.20
2022-12-11T08:42:41.922Z,33.85
2022-12-11T08:45:11.839Z,34.27
2022-12-11T08:47:41.402Z,34.13
2022-12-11T08:50:10.982Z,28.92
2022-12-11T08:52:40.010Z,32.83
2022-12-11T08:55:11.681Z,32.33
2022-12-11T08:57:42.138Z,32.27
2022-12-11T09:00:13.949Z,29.33
2022-12-11T09:02:43.220Z,28.05
2022-12-11T09:05:12.469Z,28.70
2022-12-11T09:07:42.457Z,25.58
2022-12-11T09:10:12.638Z,22.97
2022-12-11T09:12:42.900Z,27.20
2022-12-11T09:15:13.297Z,24.92
2022-12-11T09:17:42.600Z,29.35
2022-12-11T09:20:11.766Z,26.38
2022-12-11T09:22:41.389Z,24.83
2022-12-11T09:25:11.093Z,31.95
2022-12-11T09:27:41.992Z,22.55
2022-12-11T09:30:11.515Z,24.55
2022-12-11T09:32:40.784Z,26.42
2022-12-11T09:35:11.676Z,25.73
2022-12-11T09:37:40.534Z,25.35
2022-12-11T09:40:12.389Z,29.50
2022-12-11T09:42:52.801Z,29.58
2022-12-11T09:45:22.382Z,25.95
2022-12-11T09:47:54.607Z,24.70
2022-12-11T09:50:27.147Z,25.90
2022-12-11T09:53:05.910Z,24.02
2022-12-11T09:55:43.731Z,26.15
2022-12-11T09:58:24.375Z,28.80
2022-12-11T10:00:59.723Z,25.97
2022-12-11T10:03:57.936Z,27.95
2022-12-11T10:06:32.115Z,28.02
2022-12-11T10:09:10.299Z,29.88
2022-12-11T10:11:56.407Z,28.15
2022-12-11T10:14:36.688Z,25.93
2022-12-11T10:17:12.566Z,28.35
2022-12-11T10:19:42.861Z,27.80
2022-12-11T10:22:20.108Z,28.63
2022-12-11T10:25:10.615Z,27.85
2022-12-11T10:27:42.081Z,27.00
2022-12-11T10:30:18.297Z,27.25
2022-12-11T10:32:53.964Z,25.75
2022-12-11T10:35:32.921Z,26.40
2022-12-11T10:38:13.614Z,22.38
2022-12-11T10:40:46.405Z,26.27
2022-12-11T10:43:15.811Z,23.60
2022-12-11T10:45:54.078Z,22.88
2022-12-11T10:48:24.031Z,27.45
2022-12-11T10:51:02.414Z,21.27
2022-12-11T10:53:33.173Z,25.17
2022-12-11T10:56:03.265Z,25.92
2022-12-11T10:58:34.625Z,26.90
2022-12-11T11:01:10.971Z,24.10
2022-12-11T11:03:56.214Z,23.13
2022-12-11T11:06:27.172Z,22.53
2022-12-11T11:08:58.243Z,21.63
2022-12-11T11:11:30.375Z,22.02
2022-12-11T11:14:15.510Z,23.30
2022-12-11T11:16:48.305Z,20.83
2022-12-11T11:19:24.941Z,18.83
2022-12-11T11:21:56.619Z,21.27
2022-12-11T11:24:30.170Z,22.83
2022-12-11T11:27:14.962Z,20.83
2022-12-11T11:29:46.696Z,20.88
2022-12-11T11:32:23.954Z,19.13
2022-12-11T11:34:53.195Z,20.83
2022-12-11T11:37:32.082Z,16.85
2022-12-11T11:40:08.082Z,18.45
2022-12-11T11:42:46.620Z,17.40
2022-12-11T11:45:22.398Z,18.07
2022-12-11T11:48:03.133Z,15.90
2022-12-11T11:50:37.758Z,16.15
2022-12-11T11:53:11.838Z,17.02
2022-12-11T11:55:48.633Z,18.67
2022-12-11T11:58:23.086Z,17.90
2022-12-11T12:00:54.846Z,17.08
2022-12-11T12:03:27.050Z,16.00
2022-12-11T12:05:59.894Z,16.80
2022-12-11T12:08:43.370Z,19.42
2022-12-11T12:11:21.941Z,16.33
2022-12-11T12:14:00.667Z,17.75
2022-12-11T12:16:52.793Z,17.92
2022-12-11T12:19:39.826Z,15.52
2022-12-11T12:22:19.806Z,16.75
2022-12-11T12:24:56.622Z,19.23
2022-12-11T12:30:24.072Z,20.85
2022-12-11T12:33:09.127Z,22.48
2022-12-11T12:35:41.838Z,21.38
2022-12-11T12:38:20.577Z,21.17
2022-12-11T12:40:57.051Z,26.08
2022-12-11T12:43:56.159Z,23.70
2022-12-11T12:46:35.439Z,26.88
2022-12-11T12:49:06.443Z,25.58
2022-12-11T12:51:38.282Z,24.93
2022-12-11T12:54:12.489Z,22.63
2022-12-11T12:56:43.870Z,22.42
2022-12-11T12:59:24.494Z,24.80
2022-12-11T13:01:57.323Z,26.10
2022-12-11T13:04:55.613Z,23.70
2022-12-11T13:07:30.328Z,29.40
2022-12-11T13:10:04.638Z,20.88
2022-12-11T13:12:43.061Z,25.48
2022-12-11T13:15:27.545Z,22.90
2022-12-11T13:17:56.669Z,26.83
2022-12-11T13:20:27.203Z,26.88
2022-12-11T13:23:16.527Z,27.13
2022-12-11T13:26:04.678Z,26.42
2022-12-11T13:28:47.386Z,30.13
2022-12-11T13:31:37.542Z,25.07
2022-12-11T13:34:17.997Z,26.85
2022-12-11T13:36:51.313Z,25.70
2022-12-11T13:39:25.303Z,26.75
2022-12-11T13:41:57.056Z,27.20
2022-12-11T13:44:30.896Z,26.30
2022-12-11T13:47:01.607Z,28.08
2022-12-11T13:49:35.426Z,25.60
2022-12-11T13:52:05.792Z,25.88
2022-12-11T13:54:37.704Z,24.67
2022-12-11T13:57:18.950Z,28.27
2022-12-11T13:59:50.682Z,25.27
2022-12-11T14:02:23.842Z,25.38
2022-12-11T14:04:57.110Z,24.90
2022-12-11T14:07:30.022Z,28.65
2022-12-11T14:10:03.672Z,26.83
2022-12-11T14:12:33.612Z,27.02
2022-12-11T14:15:05.256Z,22.38
2022-12-11T14:17:36.249Z,28.55
2022-12-11T14:20:08.585Z,26.38
2022-12-11T14:22:37.859Z,27.87
2022-12-11T14:25:22.373Z,25.52
2022-12-11T14:27:53.681Z,25.75
2022-12-11T14:30:24.894Z,27.30
2022-12-11T14:32:58.322Z,26.70
2022-12-11T14:35:35.555Z,27.47
2022-12-11T14:38:14.862Z,24.85
2022-12-11T14:40:48.551Z,26.33
2022-12-11T14:43:24.734Z,24.50
2022-12-11T14:45:59.453Z,23.25
2022-12-11T14:48:32.346Z,26.23
2022-12-11T14:51:05.224Z,26.05
2022-12-11T14:53:39.415Z,27.35
2022-12-11T14:56:17.532Z,24.10
2022-12-11T14:58:54.768Z,26.85
2022-12-11T15:01:25.867Z,29.80
2022-12-11T15:04:05.059Z,26.73
2022-12-11T15:06:35.729Z,28.00
2022-12-11T15:09:21.605Z,22.92
2022-12-11T15:11:53.597Z,27.15
2022-12-11T15:14:26.369Z,29.10
2022-12-11T15:16:58.942Z,25.10
2022-12-11T15:19:32.493Z,26.48
2022-12-11T15:22:06.183Z,25.95
2022-12-11T15:24:39.482Z,30.13
2022-12-11T15:27:27.092Z,27.97
2022-12-11T15:29:57.024Z,27.80
2022-12-11T15:32:26.137Z,31.48
2022-12-11T15:34:56.746Z,30.33
2022-12-11T15:37:27.841Z,26.63
2022-12-11T15:39:58.801Z,30.43
2022-12-11T15:42:33.077Z,33.75
2022-12-11T15:45:03.165Z,31.60
2022-12-11T15:47:32.973Z,31.23
2022-12-11T15:50:09.521Z,32.00
2022-12-11T15:52:39.246Z,34.93
2022-12-11T15:55:08.720Z,34.08
2022-12-11T15:57:42.514Z,31.67
2022-12-11T16:00:19.405Z,29.75
2022-12-11T16:02:49.515Z,28.38
2022-12-11T16:05:18.328Z,31.33
2022-12-11T16:07:49.147Z,28.00
2022-12-11T16:10:21.156Z,29.40
2022-12-11T16:12:51.827Z,34.25
2022-12-11T16:15:23.775Z,29.83
2022-12-11T16:18:01.105Z,31.13
2022-12-11T16:20:32.153Z,33.30
2022-12-11T16:23:02.695Z,30.75
2022-12-11T16:25:31.949Z,32.10
2022-12-11T16:28:03.289Z,36.63
2022-12-11T16:30:32.937Z,36.97
2022-12-11T16:33:03.015Z,36.90
2022-12-11T16:35:34.323Z,35.50
2022-12-11T16:38:02.949Z,37.00
2022-12-11T16:40:31.901Z,39.58
2022-12-11T16:43:02.191Z,38.07
2022-12-11T16:45:31.016Z,37.85
2022-12-11T16:47:59.987Z,40.95
2022-12-11T16:50:29.014Z,39.45
2022-12-11T16:52:58.580Z,38.45
2022-12-11T16:55:27.672Z,33.20
2022-12-11T16:57:56.406Z,40.17
2022-12-11T17:00:26.939Z,36.85
2022-12-11T17:02:55.866Z,41.33
2022-12-11T17:05:25.790Z,42.58
2022-12-11T17:07:55.145Z,40.73
2022-12-11T17:10:23.987Z,38.67
2022-12-11T17:12:54.780Z,44.60
2022-12-11T17:15:23.441Z,42.05
2022-12-11T17:17:54.048Z,44.22
2022-12-11T17:20:22.968Z,40.83
2022-12-11T17:22:51.738Z,42.10
2022-12-11T17:25:22.723Z,36.90
2022-12-11T17:27:51.982Z,41.67
2022-12-11T17:30:21.384Z,43.05
2022-12-11T17:32:50.683Z,38.80
2022-12-11T17:35:20.699Z,43.85
2022-12-11T17:37:49.977Z,43.20
2022-12-11T17:40:20.918Z,39.28
2022-12-11T17:42:53.095Z,47.63
2022-12-11T17:45:22.209Z,39.97
2022-12-11T17:47:51.277Z,40.70
2022-12-11T17:50:21.565Z,38.78
2022-12-11T17:52:50.141Z,43.67
2022-12-11T17:55:19.597Z,45.22
2022-12-11T17:57:49.249Z,39.97
2022-12-11T18:00:19.013Z,38.22
2022-12-11T18:02:47.684Z,46.22
2022-12-11T18:05:17.116Z,48.70
2022-12-11T18:07:47.369Z,44.70
2022-12-11T18:10:16.611Z,46.23
2022-12-11T18:12:45.680Z,41.47
2022-12-11T18:15:15.159Z,44.65
2022-12-11T18:17:43.806Z,44.08
2022-12-11T18:20:16.040Z,43.05
2022-12-11T18:22:46.409Z,40.13
2022-12-11T18:25:15.796Z,40.67
2022-12-11T18:27:44.979Z,45.70
2022-12-11T18:30:15.315Z,41.47
2022-12-11T18:32:45.591Z,42.30
2022-12-11T18:35:14.745Z,39.00
2022-12-11T18:37:44.149Z,37.88
2022-12-11T18:40:14.321Z,41.53
2022-12-11T18:42:43.198Z,42.20
2022-12-11T18:45:12.705Z,45.85
2022-12-11T18:47:41.935Z,42.60
2022-12-11T18:50:10.804Z,40.28
2022-12-11T18:52:39.898Z,43.33
2022-12-11T18:55:09.373Z,38.60
2022-12-11T18:57:40.057Z,38.47
2022-12-11T19:00:15.026Z,40.53
2022-12-11T19:02:44.198Z,37.80
2022-12-11T19:05:14.008Z,39.28
2022-12-11T19:07:43.397Z,37.22
2022-12-11T19:10:12.519Z,32.97
2022-12-11T19:12:43.301Z,35.40
2022-12-11T19:15:13.645Z,36.42
2022-12-11T19:17:43.670Z,40.65
2022-12-11T19:20:40.490Z,32.10
2022-12-11T19:23:06.175Z,34.63
2022-12-11T19:25:35.324Z,37.47
2022-12-11T19:28:05.516Z,37.83
2022-12-11T19:30:34.842Z,35.72
2022-12-11T19:33:03.592Z,33.63
2022-12-11T19:35:32.656Z,35.65
2022-12-11T19:38:01.325Z,32.47
2022-12-11T19:40:30.777Z,37.10
2022-12-11T19:42:59.731Z,36.85
2022-12-11T19:45:31.618Z,39.50
2022-12-11T19:48:00.664Z,39.33
2022-12-11T19:50:29.483Z,43.60
2022-12-11T19:52:58.459Z,41.88
2022-12-11T19:55:27.416Z,37.30
2022-12-11T19:57:57.058Z,40.63
2022-12-11T20:00:26.177Z,40.78
2022-12-11T20:02:56.527Z,36.23
2022-12-11T20:05:25.245Z,40.10
2022-12-11T20:07:54.647Z,35.30
2022-12-11T20:10:23.373Z,39.63
2022-12-11T20:12:52.861Z,40.30
2022-12-11T20:15:21.648Z,40.87
2022-12-11T20:17:54.000Z,39.15
2022-12-11T20:20:26.781Z,36.35
2022-12-11T20:22:57.235Z,38.83
2022-12-11T20:25:26.527Z,38.13
2022-12-11T20:27:56.778Z,43.30
2022-12-11T20:30:26.093Z,39.05
2022-12-11T20:32:55.538Z,40.22
2022-12-11T20:35:26.523Z,36.25
2022-12-11T20:37:55.527Z,35.38
2022-12-11T20:40:25.446Z,33.97
2022-12-11T20:42:54.542Z,35.70
2022-12-11T20:45:23.780Z,36.08
2022-12-11T20:47:53.442Z,36.60
2022-12-11T20:50:22.195Z,35.60
2022-12-11T20:52:52.499Z,35.53
2022-12-11T20:55:21.433Z,35.13
2022-12-11T20:57:50.697Z,38.10
2022-12-11T21:00:20.356Z,35.60
2022-12-11T21:02:51.744Z,37.22
2022-12-11T21:05:21.026Z,36.40
2022-12-11T21:07:49.731Z,36.70
2022-12-11T21:10:20.470Z,36.13
2022-12-11T21:12:49.296Z,37.28
2022-12-11T21:15:18.225Z,36.53
2022-12-11T21:17:47.591Z,37.90
2022-12-11T21:20:17.050Z,34.92
2022-12-11T21:22:46.026Z,34.10
2022-12-11T21:25:15.194Z,32.97
2022-12-11T21:27:45.256Z,36.88
2022-12-11T21:30:15.454Z,35.87
2022-12-11T21:32:44.065Z,36.58
2022-12-11T21:35:14.033Z,32.05
2022-12-11T21:37:43.313Z,33.20
2022-12-11T21:40:13.029Z,29.15
2022-12-11T21:42:41.628Z,32.37
2022-12-11T21:48:02.367Z,34.60
2022-12-11T21:50:31.529Z,36.60
2022-12-11T21:53:01.716Z,30.30
2022-12-11T21:55:30.910Z,32.03
2022-12-11T21:58:00.045Z,30.15
2022-12-11T22:00:30.645Z,33.15
2022-12-11T22:02:59.669Z,31.75
2022-12-11T22:05:28.456Z,33.83
2022-12-11T22:07:57.471Z,28.77
2022-12-11T22:10:26.802Z,32.08
2022-12-11T22:12:56.414Z,30.33
2022-12-11T22:15:26.870Z,31.70
2022-12-11T22:18:01.178Z,27.95
2022-12-11T22:20:30.759Z,31.50
2022-12-11T22:23:00.460Z,29.95
2022-12-11T22:25:30.694Z,34.58
2022-12-11T22:27:59.882Z,30.33
2022-12-11T22:30:29.241Z,30.48
2022-12-11T22:32:59.279Z,30.23
2022-12-11T22:35:28.844Z,28.83
2022-12-11T22:37:57.809Z,28.85
2022-12-11T22:40:27.003Z,32.00
2022-12-11T22:42:55.867Z,26.38
2022-12-11T22:45:25.461Z,25.27
2022-12-11T22:47:54.695Z,28.45
2022-12-11T22:50:26.726Z,25.13
2022-12-11T22:52:55.656Z,28.40
2022-12-11T22:55:24.263Z,27.35
2022-12-11T22:57:53.331Z,24.63
2022-12-11T23:00:22.848Z,24.10
2022-12-11T23:02:51.823Z,26.90
2022-12-11T23:05:20.967Z,26.17
2022-12-11T23:07:51.333Z,26.88
2022-12-11T23:10:20.194Z,25.63
2022-12-11T23:12:49.756Z,27.75
2022-12-11T23:15:18.914Z,30.33
2022-12-11T23:17:47.947Z,27.58
2022-12-11T23:20:17.114Z,28.63
2022-12-11T23:22:46.181Z,26.13
2022-12-11T23:25:17.324Z,29.85
2022-12-11T23:27:46.710Z,28.45
2022-12-11T23:30:15.565Z,28.42
2022-12-11T23:32:44.608Z,29.45
2022-12-11T23:35:13.553Z,28.90
2022-12-11T23:37:43.829Z,29.70
2022-12-11T23:40:14.406Z,30.85
2022-12-11T23:42:44.934Z,29.88
2022-12-11T23:45:14.487Z,28.77
2022-12-11T23:47:43.729Z,29.93
2022-12-11T23:50:12.805Z,28.77
2022-12-11T23:53:01.328Z,29.00
2022-12-11T23:55:38.307Z,30.85
2022-12-11T23:58:11.057Z,29.88
